Time;durP1;ratioP1;P1;durP2;ratioP2;P2;SDS_P1;SDS_P2;PMS_P1;PMS_P2;Temp;Humidity;BMP_temperature;BMP_pressure;BME280_temperature;BME280_humidity;BME280_pressure;Samples;Min_cycle;Max_cycle;Signal;HPM_P1;HPM_P2
2024/04/06 00:01:21;;;;;;;7.00;4.30;;;;;;;2.81;100.00;142958.23;106938;1258;25311;-67
2024/04/06 00:04:07;;;;;;;10.30;5.40;;;;;;;2.73;100.00;142937.80;106940;1275;25362;-67
2024/04/06 00:06:53;;;;;;;7.60;4.40;;;;;;;2.64;100.00;142917.38;106765;1275;22520;-64
2024/04/06 00:09:40;;;;;;;11.20;5.30;;;;;;;2.55;100.00;142896.20;106766;1275;25379;-67
2024/04/06 00:12:27;;;;;;;6.80;4.00;;;;;;;2.50;100.00;142881.72;106963;1275;22534;-65
2024/04/06 00:15:14;;;;;;;6.10;3.90;;;;;;;2.45;100.00;142870.52;106786;1256;25362;-68
2024/04/06 00:18:00;;;;;;;8.30;4.40;;;;;;;2.42;100.00;142862.03;106728;1275;22528;-66
2024/04/06 00:20:46;;;;;;;8.20;4.50;;;;;;;2.40;100.00;142858.31;106978;1258;25295;-67
2024/04/06 00:23:32;;;;;;;9.60;4.70;;;;;;;2.36;100.00;142849.84;106942;1275;25294;-62
2024/04/06 00:26:18;;;;;;;6.50;3.70;;;;;;;2.32;100.00;142839.38;106765;1275;22776;-65
2024/04/06 00:29:04;;;;;;;5.60;3.60;;;;;;;2.27;100.00;142826.66;106746;1275;22516;-65
2024/04/06 00:31:51;;;;;;;8.50;4.30;;;;;;;2.27;100.00;142826.42;106962;1275;22761;-64
2024/04/06 00:34:37;;;;;;;9.00;4.50;;;;;;;2.27;100.00;142826.92;106759;1275;22524;-63
2024/04/06 00:37:23;;;;;;;6.70;3.60;;;;;;;2.24;100.00;142819.70;106940;1275;24265;-69
2024/04/06 00:40:10;;;;;;;6.40;4.00;;;;;;;2.22;100.00;142813.47;106914;1275;22527;-67
2024/04/06 00:42:56;;;;;;;5.40;3.70;;;;;;;2.20;100.00;142810.23;106763;1275;22516;-64
2024/04/06 00:45:43;;;;;;;7.20;3.80;;;;;;;2.21;100.00;142811.48;106942;1266;25253;-68
2024/04/06 00:48:29;;;;;;;7.40;3.70;;;;;;;2.23;100.00;142816.95;106930;1275;22523;-68
2024/04/06 14:10:08;;;;;;;8.50;3.60;;;;;;;7.08;94.40;143999.69;104092;1302;545950;-67
2024/04/06 14:12:55;;;;;;;7.20;3.60;;;;;;;6.94;95.08;143965.39;106030;1287;25316;-68
2024/04/06 14:15:45;;;;;;;9.50;3.70;;;;;;;6.84;95.05;143940.66;105966;1289;22532;-67
2024/04/06 14:18:33;;;;;;;8.50;3.90;;;;;;;6.78;95.80;143925.13;105811;1289;25468;-66
2024/04/06 14:21:20;;;;;;;9.20;4.30;;;;;;;6.72;96.54;143912.38;105838;1273;22547;-62
2024/04/06 14:24:06;;;;;;;9.00;5.10;;;;;;;6.72;96.53;143911.66;105837;1287;172361;-67
2024/04/06 14:26:55;;;;;;;8.70;4.60;;;;;;;6.75;96.64;143920.14;106086;1272;22530;-67
2024/04/06 14:29:41;;;;;;;8.70;4.00;;;;;;;6.76;97.60;143921.13;106081;1287;22536;-62
2024/04/06 14:32:28;;;;;;;8.00;4.20;;;;;;;6.77;97.50;143924.88;106099;1287;25469;-65
2024/04/06 14:35:16;;;;;;;8.00;4.20;;;;;;;6.84;96.59;143941.16;106076;1287;25359;-64
2024/04/06 14:38:03;;;;;;;8.50;4.40;;;;;;;6.92;96.38;143960.64;106266;1272;22544;-71
2024/04/06 14:40:50;;;;;;;8.50;5.20;;;;;;;6.97;94.32;143973.66;106134;1287;24285;-70
2024/04/06 14:43:36;;;;;;;10.90;4.90;;;;;;;7.04;93.87;143989.17;106350;1266;22550;-68
2024/04/06 14:46:22;;;;;;;10.70;4.90;;;;;;;7.09;93.08;144002.44;106232;1272;22657;-63
2024/04/06 14:49:09;;;;;;;10.50;5.40;;;;;;;7.11;92.86;144007.94;106210;1272;25313;-65
2024/04/06 14:51:55;;;;;;;9.80;5.60;;;;;;;7.15;93.16;144018.17;106188;1286;24206;-69
2024/04/06 14:54:45;;;;;;;8.30;5.00;;;;;;;7.20;92.98;144029.19;106175;1286;24254;-65
2024/04/06 14:57:33;;;;;;;9.80;5.80;;;;;;;7.23;92.79;144037.20;106178;1279;22799;-65
2024/04/06 15:00:19;;;;;;;9.20;5.30;;;;;;;7.24;93.23;144039.45;106200;1272;24206;-65
2024/04/06 15:03:06;;;;;;;12.70;7.30;;;;;;;7.24;93.74;144038.20;106163;1286;22539;-66
2024/04/06 15:05:52;;;;;;;15.60;8.00;;;;;;;7.20;95.38;144028.69;106196;1286;22615;-65
2024/04/06 15:08:41;;;;;;;16.50;8.40;;;;;;;7.09;96.58;144002.44;106163;1271;22534;-61
2024/04/06 15:11:27;;;;;;;16.90;10.00;;;;;;;6.99;98.39;143979.16;106187;1286;25460;-68
2024/04/06 15:14:14;;;;;;;18.40;9.00;;;;;;;6.92;99.98;143959.91;106188;1286;24256;-65
2024/04/06 15:17:01;;;;;;;12.60;7.50;;;;;;;6.85;100.00;143943.91;106195;1269;22624;-66
2024/04/06 15:19:48;;;;;;;13.40;6.70;;;;;;;6.77;100.00;143923.39;106213;1286;23912;-66
2024/04/06 15:22:34;;;;;;;10.50;6.50;;;;;;;6.67;100.00;143899.89;106188;1286;25294;-65
2024/04/06 15:25:20;;;;;;;9.40;5.00;;;;;;;6.61;100.00;143885.41;106441;1276;22557;-67
2024/04/06 15:28:07;;;;;;;7.20;3.80;;;;;;;6.54;100.00;143868.38;106004;1280;22630;-65
2024/04/06 15:30:53;;;;;;;7.30;4.30;;;;;;;6.44;100.00;143844.13;106015;1286;25363;-67
2024/04/06 15:33:39;;;;;;;8.40;4.20;;;;;;;6.32;100.00;143814.13;106181;1272;22534;-64
2024/04/06 15:36:26;;;;;;;8.90;4.30;;;;;;;6.17;100.00;143777.16;106271;1272;22530;-66
2024/04/06 15:39:23;;;;;;;9.70;4.60;;;;;;;6.09;100.00;143757.39;106435;1286;22542;-66
2024/04/06 15:42:11;;;;;;;9.90;3.70;;;;;;;5.94;100.00;143722.14;106212;1269;22554;-68
2024/04/06 15:44:58;;;;;;;7.60;3.50;;;;;;;5.67;100.00;143656.41;106171;1273;22524;-64
2024/04/06 15:47:44;;;;;;;6.30;3.30;;;;;;;5.44;100.00;143600.20;106161;1274;24288;-63
2024/04/06 15:50:30;;;;;;;10.30;4.00;;;;;;;5.28;100.00;143561.47;106754;1278;25300;-68
2024/04/06 15:53:17;;;;;;;8.30;3.80;;;;;;;5.18;100.00;143537.00;106865;1273;25281;-64
2024/04/06 15:56:04;;;;;;;10.90;3.90;;;;;;;5.10;100.00;143515.78;106780;1276;22540;-65
2024/04/06 15:58:50;;;;;;;6.50;3.50;;;;;;;5.03;100.00;143497.80;106758;1276;22532;-67
2024/04/06 16:01:39;;;;;;;9.40;3.90;;;;;;;4.97;100.00;143486.08;106835;1267;24382;-61
2024/04/06 16:04:26;;;;;;;7.10;4.00;;;;;;;4.98;100.00;143486.81;106944;1260;22806;-62
2024/04/06 16:07:12;;;;;;;11.50;4.40;;;;;;;5.04;100.00;143502.56;106951;1275;24239;-65
2024/04/06 16:09:59;;;;;;;9.70;5.40;;;;;;;5.06;100.00;143505.53;106948;1268;22518;-63
2024/04/06 16:12:45;;;;;;;7.20;4.50;;;;;;;5.03;100.00;143498.80;106951;1276;22520;-68
2024/04/06 16:15:31;;;;;;;8.20;3.80;;;;;;;5.01;100.00;143494.05;106776;1276;24261;-69
2024/04/06 16:18:18;;;;;;;7.70;4.20;;;;;;;4.93;100.00;143474.31;107050;1272;22551;-63
2024/04/06 16:21:04;;;;;;;7.10;3.60;;;;;;;4.86;100.00;143458.09;107055;1272;24195;-66
2024/04/06 16:23:50;;;;;;;10.30;4.50;;;;;;;4.82;100.00;143447.61;107110;1269;25362;-64
2024/04/06 16:26:37;;;;;;;6.80;3.60;;;;;;;4.78;100.00;143438.88;106948;1274;22521;-64
2024/04/06 16:29:23;;;;;;;9.20;4.30;;;;;;;4.80;100.00;143442.63;107316;1269;25262;-72
2024/04/06 16:32:10;;;;;;;8.10;3.70;;;;;;;4.82;100.00;143448.36;107084;1267;22515;-66
2024/04/06 16:34:56;;;;;;;8.40;4.50;;;;;;;4.85;100.00;143455.09;107162;1271;22537;-63
2024/04/06 16:37:45;;;;;;;8.50;4.30;;;;;;;4.88;100.00;143464.09;107188;1267;22505;-65
2024/04/06 16:40:32;;;;;;;8.10;4.70;;;;;;;4.93;100.00;143475.31;107198;1267;25351;-62
2024/04/06 16:43:18;;;;;;;10.80;4.80;;;;;;;4.98;100.00;143488.30;106985;1259;22517;-65
2024/04/06 16:46:04;;;;;;;10.70;5.30;;;;;;;5.05;100.00;143502.30;107110;1267;22653;-64
2024/04/06 16:48:50;;;;;;;11.90;6.10;;;;;;;5.08;100.00;143512.28;106928;1275;22528;-65
2024/04/06 16:51:37;;;;;;;11.80;5.80;;;;;;;5.13;100.00;143523.77;107079;1267;22529;-67
2024/04/06 16:54:23;;;;;;;11.80;5.30;;;;;;;5.17;100.00;143533.50;107019;1267;22635;-64
2024/04/06 16:57:09;;;;;;;11.20;5.30;;;;;;;5.18;100.00;143536.75;106894;1269;22537;-67
2024/04/06 16:59:56;;;;;;;9.00;4.80;;;;;;;5.19;100.00;143539.25;106769;1276;24090;-66
2024/04/06 17:02:43;;;;;;;10.90;5.40;;;;;;;5.19;100.00;143539.00;106799;1276;25344;-63
2024/04/06 17:05:30;;;;;;;8.10;4.10;;;;;;;5.20;100.00;143541.97;106881;1272;25379;-67
2024/04/06 17:08:18;;;;;;;11.50;5.40;;;;;;;5.23;100.00;143548.48;106756;1266;22552;-69
2024/04/06 17:11:04;;;;;;;14.10;6.10;;;;;;;5.23;100.00;143547.97;106822;1269;22523;-67
2024/04/06 17:13:51;;;;;;;16.20;7.00;;;;;;;5.20;100.00;143541.72;106796;1276;24260;-67
2024/04/06 17:16:38;;;;;;;13.30;8.60;;;;;;;5.19;100.00;143538.73;106796;1276;25423;-63
2024/04/06 17:19:24;;;;;;;17.70;8.50;;;;;;;5.18;100.00;143537.00;106803;1262;22536;-68
2024/04/06 17:22:10;;;;;;;14.40;8.30;;;;;;;5.19;100.00;143537.75;106814;1276;22528;-65
2024/04/06 17:25:01;;;;;;;14.00;8.10;;;;;;;5.18;100.00;143535.50;106785;1259;24249;-69
2024/04/06 17:27:47;;;;;;;15.30;8.50;;;;;;;5.17;100.00;143534.50;106818;1276;25462;-68
2024/04/06 17:30:34;;;;;;;13.00;8.10;;;;;;;5.17;100.00;143532.75;106832;1276;22530;-67
2024/04/06 17:33:20;;;;;;;15.20;8.10;;;;;;;5.16;100.00;143531.75;106780;1268;22551;-62
2024/04/06 17:36:07;;;;;;;9.70;6.00;;;;;;;5.14;100.00;143525.77;106790;1276;25449;-69
2024/04/06 17:38:54;;;;;;;10.00;6.10;;;;;;;5.10;100.00;143517.25;106811;1276;22520;-65
2024/04/06 17:41:40;;;;;;;11.20;5.20;;;;;;;5.08;100.00;143511.03;106766;1276;25362;-69
2024/04/06 17:44:27;;;;;;;8.70;5.80;;;;;;;5.06;100.00;143505.03;106812;1269;24239;-67
2024/04/06 17:47:13;;;;;;;9.90;4.80;;;;;;;5.04;100.00;143501.03;107227;1267;22557;-66
2024/04/06 17:50:00;;;;;;;8.30;4.90;;;;;;;5.02;100.00;143496.06;106958;1275;25411;-67
2024/04/06 17:52:47;;;;;;;10.80;4.90;;;;;;;4.98;100.00;143488.28;107117;1268;24212;-65
2024/04/06 17:55:33;;;;;;;11.10;5.50;;;;;;;4.97;100.00;143484.31;106956;1275;24212;-66
2024/04/06 17:58:20;;;;;;;11.00;4.90;;;;;;;4.95;100.00;143481.06;106968;1268;25249;-64
2024/04/06 18:01:07;;;;;;;9.10;5.00;;;;;;;4.96;100.00;143483.56;106987;1275;22520;-64
2024/04/06 18:03:54;;;;;;;8.90;5.30;;;;;;;4.96;100.00;143484.31;107107;1270;25356;-65
2024/04/06 18:06:41;;;;;;;8.70;5.90;;;;;;;4.94;100.00;143476.81;106917;1261;22624;-69
2024/04/06 18:09:28;;;;;;;10.50;5.60;;;;;;;4.89;100.00;143466.09;106784;1275;25246;-66
2024/04/06 18:12:14;;;;;;;8.70;5.20;;;;;;;4.87;100.00;143459.61;106985;1275;24269;-69
2024/04/06 18:15:00;;;;;;;12.50;5.60;;;;;;;4.82;100.00;143447.38;106965;1267;22524;-65
2024/04/06 18:17:47;;;;;;;8.70;5.20;;;;;;;4.78;100.00;143438.13;106962;1275;22524;-65
2024/04/06 18:20:33;;;;;;;10.10;5.30;;;;;;;4.78;100.00;143437.88;106977;1275;23050;-68
2024/04/06 18:23:19;;;;;;;11.30;5.10;;;;;;;4.79;100.00;143441.88;106953;1275;22522;-68
2024/04/06 18:26:08;;;;;;;9.70;5.50;;;;;;;4.81;100.00;143444.61;106998;1263;22530;-64
2024/04/06 18:28:55;;;;;;;7.80;4.90;;;;;;;4.83;100.00;143449.38;106986;1267;24225;-69
2024/04/06 18:31:42;;;;;;;9.70;4.90;;;;;;;4.82;100.00;143447.63;106998;1254;26634;-62
2024/04/06 18:34:28;;;;;;;9.50;4.60;;;;;;;4.78;100.00;143438.13;107004;1275;25353;-68
2024/04/06 18:37:17;;;;;;;11.60;6.30;;;;;;;4.70;100.00;143418.16;106981;1275;24656;-69
2024/04/06 18:40:04;;;;;;;11.30;5.50;;;;;;;4.59;100.00;143393.19;107018;1260;22559;-63
2024/04/06 18:42:50;;;;;;;6.50;4.30;;;;;;;4.46;100.00;143360.50;107059;1275;22545;-69
2024/04/06 18:45:38;;;;;;;8.60;4.60;;;;;;;4.38;100.00;143341.30;107012;1268;22531;-67
2024/04/06 18:48:24;;;;;;;8.20;5.10;;;;;;;4.35;100.00;143333.78;107001;1275;23106;-64
2024/04/06 18:51:16;;;;;;;7.70;4.10;;;;;;;4.32;100.00;143325.83;106999;1260;22523;-63
2024/04/06 18:54:02;;;;;;;16.30;5.80;;;;;;;4.28;100.00;143316.81;107008;1275;24300;-65
2024/04/06 18:57:02;;;;;;;8.50;4.60;;;;;;;4.29;100.00;143319.56;106979;1275;22527;-69
2024/04/06 18:59:50;;;;;;;8.00;5.30;;;;;;;4.32;100.00;143326.80;106955;1275;22534;-66
2024/04/06 19:02:36;;;;;;;11.00;4.40;;;;;;;4.31;100.00;143323.08;106944;1260;22521;-66
2024/04/06 19:05:25;;;;;;;8.30;4.10;;;;;;;4.31;100.00;143325.06;106964;1275;22524;-66
2024/04/06 19:08:11;;;;;;;8.00;4.20;;;;;;;4.33;100.00;143329.56;106963;1275;25246;-66
2024/04/06 19:10:57;;;;;;;7.40;4.40;;;;;;;4.36;100.00;143335.53;106969;1275;22541;-65
2024/04/06 19:13:44;;;;;;;7.70;4.40;;;;;;;4.34;100.00;143332.30;106965;1275;25379;-64
2024/04/06 19:16:30;;;;;;;8.80;5.10;;;;;;;4.30;100.00;143321.58;106964;1275;22578;-69
2024/04/06 19:19:16;;;;;;;8.60;4.90;;;;;;;4.25;100.00;143307.84;106971;1275;25249;-70
2024/04/06 19:22:03;;;;;;;8.30;5.20;;;;;;;4.17;100.00;143290.38;107016;1275;22519;-65
2024/04/06 19:24:49;;;;;;;9.90;5.20;;;;;;;4.09;100.00;143270.41;106973;1275;22530;-67
2024/04/06 19:27:36;;;;;;;9.30;5.40;;;;;;;4.00;100.00;143248.95;107004;1275;24212;-65
2024/04/06 19:30:22;;;;;;;7.80;4.80;;;;;;;3.91;100.00;143227.53;106980;1275;22532;-62
2024/04/06 19:33:08;;;;;;;9.90;4.60;;;;;;;3.86;100.00;143213.78;106930;1260;22528;-64
2024/04/06 19:35:55;;;;;;;10.30;6.00;;;;;;;3.77;100.00;143191.09;106969;1275;22523;-69
2024/04/06 19:38:41;;;;;;;13.70;5.40;;;;;;;3.67;100.00;143167.41;106969;1261;22995;-61
2024/04/06 19:41:28;;;;;;;10.60;6.10;;;;;;;3.61;100.00;143154.17;106953;1275;25362;-68
2024/04/06 19:44:15;;;;;;;9.10;5.30;;;;;;;3.56;100.00;143141.22;106949;1275;22649;-68
2024/04/06 19:47:01;;;;;;;9.70;5.90;;;;;;;3.53;100.00;143132.98;106947;1275;22530;-65
2024/04/06 19:49:47;;;;;;;10.00;4.90;;;;;;;3.51;100.00;143128.27;106989;1260;25639;-66
2024/04/06 19:52:34;;;;;;;11.40;5.60;;;;;;;3.49;100.00;143123.50;106855;1276;25242;-65
2024/04/06 19:55:20;;;;;;;10.70;6.30;;;;;;;3.46;100.00;143116.03;106806;1260;25357;-62
2024/04/06 19:58:07;;;;;;;9.60;5.80;;;;;;;3.43;100.00;143109.05;106785;1276;22524;-69
2024/04/06 20:00:54;;;;;;;8.20;5.90;;;;;;;3.37;100.00;143095.59;106773;1260;22528;-64
2024/04/06 20:03:40;;;;;;;9.70;5.80;;;;;;;3.31;100.00;143078.63;106756;1276;25303;-67
2024/04/06 20:06:29;;;;;;;11.00;6.80;;;;;;;3.24;100.00;143064.16;106753;1276;25337;-65
2024/04/06 20:09:16;;;;;;;10.50;6.70;;;;;;;3.20;100.00;143054.69;106750;1276;22522;-69
2024/04/06 20:12:03;;;;;;;10.20;6.50;;;;;;;3.18;100.00;143049.47;106756;1276;24630;-66
2024/04/06 20:14:50;;;;;;;10.70;6.60;;;;;;;3.20;100.00;143053.44;106796;1275;25290;-66
2024/04/06 20:17:36;;;;;;;9.80;6.40;;;;;;;3.18;100.00;143047.95;106758;1276;22535;-70
2024/04/06 20:20:23;;;;;;;10.80;7.20;;;;;;;3.15;100.00;143040.97;106811;1276;25489;-67
2024/04/06 20:26:15;;;;;;;9.90;6.70;;;;;;;3.08;100.00;143024.53;106942;1275;25303;-69
2024/04/06 20:29:01;;;;;;;12.50;7.40;;;;;;;3.04;100.00;143015.55;106947;1275;25313;-68
2024/04/06 20:31:48;;;;;;;11.00;6.90;;;;;;;3.02;100.00;143011.06;106919;1260;24221;-64
2024/04/06 20:34:34;;;;;;;11.80;7.70;;;;;;;3.01;100.00;143006.08;106962;1275;25317;-67
2024/04/06 20:37:21;;;;;;;11.80;7.20;;;;;;;2.98;100.00;142999.13;106897;1275;22527;-60
2024/04/06 20:40:09;;;;;;;9.80;6.90;;;;;;;2.97;100.00;142997.09;106918;1275;25300;-67
2024/04/06 20:42:56;;;;;;;12.80;7.70;;;;;;;2.96;100.00;142996.36;106937;1261;22525;-66
2024/04/06 20:45:42;;;;;;;11.80;7.50;;;;;;;2.91;100.00;142982.16;106940;1275;22516;-65
2024/04/06 20:48:29;;;;;;;12.10;7.20;;;;;;;2.85;100.00;142967.44;106939;1275;25363;-65
2024/04/06 20:51:15;;;;;;;11.10;7.20;;;;;;;2.82;100.00;142962.47;106915;1275;25344;-65
2024/04/06 20:54:01;;;;;;;12.00;7.70;;;;;;;2.78;100.00;142952.00;107055;1260;22521;-66
2024/04/06 20:56:47;;;;;;;11.60;7.40;;;;;;;2.73;100.00;142938.30;107070;1257;22524;-65
2024/04/06 20:59:34;;;;;;;10.40;7.20;;;;;;;2.69;100.00;142928.31;107085;1274;22623;-65
2024/04/06 21:02:20;;;;;;;11.20;7.10;;;;;;;2.67;100.00;142925.59;107059;1254;23897;-65
2024/04/06 21:05:06;;;;;;;11.80;7.70;;;;;;;2.66;100.00;142920.84;107010;1274;24273;-64
2024/04/06 21:07:53;;;;;;;11.60;7.00;;;;;;;2.65;100.00;142919.38;107038;1274;22515;-66
2024/04/06 21:10:39;;;;;;;10.90;7.40;;;;;;;2.65;100.00;142919.13;107067;1274;24157;-67
2024/04/06 21:13:25;;;;;;;12.80;7.60;;;;;;;2.64;100.00;142917.34;106820;1274;22981;-66
2024/04/06 21:16:11;;;;;;;11.00;7.70;;;;;;;2.63;100.00;142915.59;107041;1274;22517;-68
2024/04/06 21:18:57;;;;;;;10.70;6.80;;;;;;;2.62;100.00;142911.38;107005;1274;22533;-67
2024/04/06 21:21:44;;;;;;;10.40;7.20;;;;;;;2.57;100.00;142900.66;107068;1272;22553;-68
2024/04/06 21:24:30;;;;;;;11.50;8.80;;;;;;;2.52;100.00;142887.47;107143;1269;22521;-65
2024/04/06 21:27:16;;;;;;;9.30;7.10;;;;;;;2.47;100.00;142875.00;107010;1274;25452;-62
2024/04/06 21:30:03;;;;;;;11.50;8.00;;;;;;;2.43;100.00;142865.28;107033;1274;22529;-67
2024/04/06 21:32:49;;;;;;;12.80;7.70;;;;;;;2.39;100.00;142855.58;107013;1274;25372;-70
2024/04/06 21:35:35;;;;;;;11.40;7.30;;;;;;;2.35;100.00;142847.33;107196;1269;22547;-63
2024/04/06 21:38:21;;;;;;;15.00;7.70;;;;;;;2.33;100.00;142840.88;107018;1274;22532;-68
2024/04/06 21:41:08;;;;;;;10.10;7.60;;;;;;;2.28;100.00;142829.41;107029;1274;22518;-66
2024/04/06 21:43:54;;;;;;;11.20;7.90;;;;;;;2.26;100.00;142825.17;106998;1253;22986;-66
2024/04/06 21:46:40;;;;;;;11.30;8.60;;;;;;;2.25;100.00;142823.17;107241;1269;23907;-63
2024/04/06 21:49:26;;;;;;;10.90;8.00;;;;;;;2.25;100.00;142822.20;107002;1273;22670;-65
2024/04/06 21:52:13;;;;;;;14.00;8.20;;;;;;;2.24;100.00;142819.22;107016;1274;24409;-67
2024/04/06 21:54:59;;;;;;;11.30;8.10;;;;;;;2.23;100.00;142816.22;107015;1274;22528;-69
2024/04/06 21:57:45;;;;;;;14.10;7.80;;;;;;;2.22;100.00;142814.47;107029;1274;22537;-69
2024/04/06 22:00:36;;;;;;;13.50;7.60;;;;;;;2.20;100.00;142809.98;107001;1274;22518;-62
2024/04/06 22:03:23;;;;;;;14.10;8.10;;;;;;;2.21;100.00;142811.72;107010;1274;24209;-62
2024/04/06 22:06:09;;;;;;;11.90;8.00;;;;;;;2.22;100.00;142815.97;106984;1274;22514;-59
2024/04/06 22:08:55;;;;;;;12.20;8.40;;;;;;;2.24;100.00;142818.70;107014;1274;22630;-68
2024/04/06 22:11:41;;;;;;;9.50;7.00;;;;;;;2.25;100.00;142822.69;107015;1274;25303;-69
2024/04/06 22:14:28;;;;;;;11.20;7.80;;;;;;;2.26;100.00;142825.42;106985;1274;25501;-64
2024/04/06 22:17:14;;;;;;;11.90;7.50;;;;;;;2.27;100.00;142827.17;107019;1274;22521;-66
2024/04/06 22:20:02;;;;;;;13.00;7.70;;;;;;;2.26;100.00;142824.20;106987;1274;24287;-68
2024/04/06 22:22:49;;;;;;;9.80;7.10;;;;;;;2.23;100.00;142816.20;106996;1269;25249;-64
2024/04/06 22:25:35;;;;;;;11.50;7.30;;;;;;;2.20;100.00;142810.22;106930;1275;22531;-70
2024/04/06 22:28:22;;;;;;;11.90;7.80;;;;;;;2.17;100.00;142801.77;106860;1275;22517;-70
2024/04/06 22:31:14;;;;;;;10.50;8.00;;;;;;;2.16;100.00;142799.75;106906;1275;25388;-71
2024/04/06 22:34:01;;;;;;;11.50;7.50;;;;;;;2.20;100.00;142810.48;106878;1275;23927;-64
2024/04/06 22:36:47;;;;;;;11.50;8.00;;;;;;;2.28;100.00;142829.66;106910;1275;22530;-63
2024/04/06 22:39:33;;;;;;;11.90;8.10;;;;;;;2.31;100.00;142836.63;106905;1275;25379;-68
2024/04/06 22:42:20;;;;;;;11.20;7.80;;;;;;;2.30;100.00;142833.91;106999;1274;22516;-67
2024/04/06 22:45:06;;;;;;;12.80;7.80;;;;;;;2.26;100.00;142824.45;107024;1274;22533;-65
2024/04/06 22:47:52;;;;;;;11.00;7.30;;;;;;;2.20;100.00;142808.73;107011;1274;24219;-65
2024/04/06 22:50:39;;;;;;;10.90;7.70;;;;;;;2.16;100.00;142799.03;107001;1274;25369;-67
2024/04/06 22:53:25;;;;;;;11.10;7.90;;;;;;;2.14;100.00;142794.05;107113;1267;23128;-66
2024/04/06 22:56:11;;;;;;;10.90;7.70;;;;;;;2.11;100.00;142787.33;106878;1259;25310;-65
2024/04/06 22:58:58;;;;;;;11.30;7.10;;;;;;;2.07;100.00;142777.86;107024;1274;22524;-71
2024/04/06 23:01:44;;;;;;;11.00;7.10;;;;;;;2.03;100.00;142767.66;107019;1274;24324;-66
2024/04/06 23:04:30;;;;;;;11.00;7.60;;;;;;;1.99;100.00;142757.70;106990;1274;24228;-68
2024/04/06 23:07:16;;;;;;;11.20;7.50;;;;;;;1.89;100.00;142735.28;107014;1274;25350;-65
2024/04/06 23:10:03;;;;;;;10.50;6.90;;;;;;;1.82;100.00;142716.59;106999;1274;22520;-69
2024/04/06 23:12:50;;;;;;;12.10;7.00;;;;;;;1.75;100.00;142701.41;107011;1274;22517;-65
2024/04/06 23:15:37;;;;;;;9.60;6.70;;;;;;;1.71;100.00;142689.95;107002;1274;22517;-65
2024/04/06 23:18:23;;;;;;;11.50;7.20;;;;;;;1.66;100.00;142678.25;107015;1274;22605;-65
2024/04/06 23:21:09;;;;;;;11.80;7.50;;;;;;;1.61;100.00;142665.56;107041;1274;22513;-59
2024/04/06 23:23:55;;;;;;;9.50;6.90;;;;;;;1.57;100.00;142654.84;107010;1274;22528;-67
2024/04/06 23:26:41;;;;;;;11.20;6.60;;;;;;;1.54;100.00;142649.36;107022;1274;24218;-62
2024/04/06 23:29:28;;;;;;;11.00;6.10;;;;;;;1.52;100.00;142644.38;107015;1274;25542;-68
2024/04/06 23:32:15;;;;;;;9.70;6.50;;;;;;;1.50;100.00;142640.67;107023;1274;22524;-66
2024/04/06 23:35:01;;;;;;;11.60;6.40;;;;;;;1.49;100.00;142638.92;107008;1274;25284;-64
2024/04/06 23:37:51;;;;;;;10.10;6.60;;;;;;;1.47;100.00;142631.94;107050;1274;25381;-67
2024/04/06 23:40:38;;;;;;;10.80;6.50;;;;;;;1.45;100.00;142628.22;106994;1274;22521;-66
2024/04/06 23:43:24;;;;;;;8.20;6.00;;;;;;;1.43;100.00;142623.00;107013;1254;24246;-68
2024/04/06 23:46:11;;;;;;;10.10;6.20;;;;;;;1.40;100.00;142615.03;106979;1275;22524;-67
2024/04/06 23:48:57;;;;;;;9.10;5.80;;;;;;;1.39;100.00;142612.28;107004;1275;22536;-64
2024/04/06 23:51:45;;;;;;;8.20;5.90;;;;;;;1.37;100.00;142607.56;107000;1275;24392;-63
2024/04/06 23:54:33;;;;;;;9.00;6.60;;;;;;;1.35;100.00;142603.34;107104;1274;22517;-69
2024/04/06 23:57:19;;;;;;;7.50;5.40;;;;;;;1.34;100.00;142601.09;106951;1275;22648;-67
